Time;durP1;ratioP1;P1;durP2;ratioP2;P2;SDS_P1;SDS_P2;PMS_P1;PMS_P2;Temp;Humidity;BMP_temperature;BMP_pressure;BME280_temperature;BME280_humidity;BME280_pressure;Samples;Min_cycle;Max_cycle;Signal;HPM_P1;HPM_P2
2021/01/08 00:01:28;;;;;;;3.67;2.60;;;1.20;99.90;;;;;;5047131;28;20216;-80
2021/01/08 00:03:53;;;;;;;4.27;2.67;;;1.20;99.90;;;;;;5047547;28;20243;-77
2021/01/08 00:06:19;;;;;;;2.67;2.47;;;1.20;99.90;;;;;;5045592;28;20564;-78
2021/01/08 00:08:45;;;;;;;4.03;2.67;;;1.10;99.90;;;;;;5046307;28;20212;-77
2021/01/08 00:11:10;;;;;;;3.10;2.73;;;1.10;99.90;;;;;;5047703;28;20599;-81
2021/01/08 00:13:37;;;;;;;3.13;2.30;;;1.10;99.90;;;;;;5046196;28;20194;-78
2021/01/08 00:16:06;;;;;;;3.77;2.97;;;1.20;99.90;;;;;;5062344;28;20242;-77
2021/01/08 00:18:31;;;;;;;3.80;2.73;;;1.20;99.90;;;;;;5047026;28;20232;-78
2021/01/08 00:20:57;;;;;;;3.03;2.00;;;1.20;99.90;;;;;;5046051;28;20198;-82
2021/01/08 00:23:22;;;;;;;5.20;4.10;;;1.20;99.90;;;;;;5047382;28;20244;-80
2021/01/08 00:25:51;;;;;;;3.57;2.43;;;1.20;99.90;;;;;;5046994;28;20305;-81
2021/01/08 00:28:17;;;;;;;4.47;2.93;;;1.20;99.90;;;;;;5046185;28;20269;-78
2021/01/08 00:30:42;;;;;;;3.40;2.47;;;1.20;99.90;;;;;;5045710;28;20277;-80
2021/01/08 00:33:08;;;;;;;4.83;2.93;;;1.20;99.90;;;;;;5046023;28;20194;-78
2021/01/08 00:35:36;;;;;;;5.23;3.53;;;1.20;99.90;;;;;;5044843;28;20225;-78
2021/01/08 00:38:03;;;;;;;3.50;2.63;;;1.20;99.90;;;;;;5045212;28;20202;-79
2021/01/08 00:40:28;;;;;;;3.30;2.87;;;1.20;99.90;;;;;;5047249;28;20190;-80
2021/01/08 00:42:54;;;;;;;3.77;2.60;;;1.20;99.90;;;;;;5047024;28;20190;-78
2021/01/08 00:45:19;;;;;;;3.93;2.87;;;1.10;99.90;;;;;;5044746;28;20218;-79
2021/01/08 00:47:45;;;;;;;3.43;2.30;;;1.10;99.90;;;;;;5045442;28;20243;-78
2021/01/08 00:50:11;;;;;;;5.33;3.27;;;1.10;99.90;;;;;;5046856;28;20194;-82
2021/01/08 00:52:37;;;;;;;4.53;3.43;;;1.10;99.90;;;;;;5045773;28;20206;-79
2021/01/08 00:55:03;;;;;;;4.13;2.93;;;1.10;99.90;;;;;;5044406;28;20384;-79
2021/01/08 00:57:28;;;;;;;3.77;2.37;;;1.20;99.90;;;;;;5045262;28;20182;-79
2021/01/08 00:59:54;;;;;;;3.70;2.40;;;1.10;99.90;;;;;;5045065;28;20239;-77
2021/01/08 01:02:20;;;;;;;2.43;2.00;;;1.10;99.90;;;;;;5044996;28;20182;-80
2021/01/08 01:04:45;;;;;;;4.40;3.10;;;1.10;99.90;;;;;;5045161;28;20235;-79
2021/01/08 01:07:11;;;;;;;3.13;2.83;;;1.10;99.90;;;;;;5044450;28;20178;-78
2021/01/08 01:09:36;;;;;;;2.30;1.93;;;1.10;99.90;;;;;;5044468;28;20183;-79
2021/01/08 01:12:03;;;;;;;4.23;2.63;;;1.10;99.90;;;;;;5046721;28;20188;-79
2021/01/08 01:14:29;;;;;;;4.33;2.67;;;1.10;99.90;;;;;;5044780;28;20217;-81
2021/01/08 01:16:54;;;;;;;4.33;2.37;;;1.10;99.90;;;;;;5044444;28;21069;-78
2021/01/08 01:19:20;;;;;;;2.87;2.57;;;1.10;99.90;;;;;;5045621;28;20190;-77
2021/01/08 01:21:46;;;;;;;3.83;2.97;;;1.00;99.90;;;;;;5046111;28;20178;-81
2021/01/08 01:24:12;;;;;;;4.70;2.83;;;1.00;99.90;;;;;;5044734;28;20537;-81
2021/01/08 01:26:37;;;;;;;4.63;2.57;;;1.00;99.90;;;;;;5060589;28;20247;-79
2021/01/08 01:29:03;;;;;;;3.07;2.43;;;1.00;99.90;;;;;;5046202;28;20178;-79
2021/01/08 01:31:28;;;;;;;3.27;2.70;;;1.00;99.90;;;;;;5044647;28;20276;-81
2021/01/08 01:33:54;;;;;;;4.07;2.40;;;1.10;99.90;;;;;;5044356;28;20336;-77
2021/01/08 01:36:20;;;;;;;2.83;2.10;;;1.00;99.90;;;;;;5045004;28;20194;-78
2021/01/08 01:38:45;;;;;;;4.77;3.57;;;1.00;99.90;;;;;;5045573;28;20181;-81
2021/01/08 01:41:11;;;;;;;4.13;3.13;;;1.00;99.90;;;;;;5043642;28;20194;-79
2021/01/08 01:43:36;;;;;;;4.87;3.27;;;1.10;99.90;;;;;;5044068;28;20421;-82
2021/01/08 01:46:03;;;;;;;4.23;3.30;;;1.10;99.90;;;;;;5042985;28;20680;-82
2021/01/08 01:48:29;;;;;;;4.13;2.87;;;1.10;99.90;;;;;;5043527;28;20670;-79
2021/01/08 01:50:55;;;;;;;4.40;3.17;;;1.10;99.90;;;;;;5044565;28;20178;-77
2021/01/08 01:53:21;;;;;;;3.83;2.33;;;1.10;99.90;;;;;;5044450;28;20224;-78
2021/01/08 01:55:49;;;;;;;3.17;2.67;;;1.10;99.90;;;;;;5044448;28;20225;-80
2021/01/08 01:58:16;;;;;;;4.03;2.80;;;1.10;99.90;;;;;;5043832;28;20194;-78
2021/01/08 02:00:42;;;;;;;4.23;3.67;;;1.10;99.90;;;;;;5043502;28;20273;-79
2021/01/08 02:03:29;;;;;;;2.93;2.40;;;1.10;99.90;;;;;;5043902;28;20635;-79
2021/01/08 02:06:01;;;;;;;3.97;2.60;;;1.10;99.90;;;;;;5059512;28;20305;-77
2021/01/08 02:08:28;;;;;;;3.00;2.70;;;1.10;99.90;;;;;;5043259;28;20288;-80
2021/01/08 02:10:57;;;;;;;2.63;2.33;;;1.10;99.90;;;;;;5045012;28;20205;-81
2021/01/08 02:13:35;;;;;;;3.07;2.37;;;1.10;99.90;;;;;;5043037;28;20679;-80
2021/01/08 02:16:01;;;;;;;3.40;2.40;;;1.20;99.90;;;;;;5042651;28;20213;-79
2021/01/08 02:18:28;;;;;;;3.17;2.50;;;1.20;99.90;;;;;;5045238;28;20193;-79
2021/01/08 02:20:59;;;;;;;5.10;3.30;;;1.20;99.90;;;;;;5043135;28;20193;-82
2021/01/08 02:23:38;;;;;;;2.40;1.93;;;1.20;99.90;;;;;;5044289;28;20186;-81
2021/01/08 02:26:04;;;;;;;4.70;2.60;;;1.20;99.90;;;;;;5050876;28;20212;-82
2021/01/08 02:28:30;;;;;;;4.03;3.20;;;1.20;99.90;;;;;;5044528;28;20923;-79
2021/01/08 02:30:55;;;;;;;3.33;2.87;;;1.20;99.90;;;;;;5045101;28;20185;-81
2021/01/08 02:33:22;;;;;;;4.67;3.10;;;1.20;99.90;;;;;;5044303;28;20558;-80
2021/01/08 02:35:50;;;;;;;3.13;2.27;;;1.20;99.90;;;;;;5022795;28;583449;-80
2021/01/08 02:38:18;;;;;;;4.20;2.57;;;1.20;99.90;;;;;;5044410;28;20221;-79
2021/01/08 02:40:47;;;;;;;3.97;2.87;;;1.20;99.90;;;;;;5043820;28;20201;-79
2021/01/08 02:43:15;;;;;;;4.63;4.00;;;1.30;99.90;;;;;;5046176;28;20194;-78
2021/01/08 02:45:40;;;;;;;4.73;2.83;;;1.30;99.90;;;;;;5043565;28;20209;-78
2021/01/08 02:48:07;;;;;;;3.53;2.27;;;1.30;99.90;;;;;;5044525;28;20186;-79
2021/01/08 02:50:32;;;;;;;2.60;2.30;;;1.20;99.90;;;;;;5045188;28;20189;-77
2021/01/08 02:53:02;;;;;;;5.73;2.63;;;1.40;99.90;;;;;;5045124;28;21010;-78
2021/01/08 02:55:33;;;;;;;4.57;2.73;;;1.40;99.90;;;;;;5043954;28;20228;-79
2021/01/08 02:58:00;;;;;;;3.53;2.87;;;1.30;99.90;;;;;;5045976;28;20767;-78
2021/01/08 03:00:28;;;;;;;2.43;2.07;;;1.40;99.90;;;;;;5046152;28;20553;-76
2021/01/08 03:02:54;;;;;;;2.20;1.90;;;1.30;99.90;;;;;;5048345;28;20190;-77
2021/01/08 03:05:20;;;;;;;3.40;2.70;;;1.30;99.90;;;;;;5046535;28;20731;-78
2021/01/08 03:07:47;;;;;;;2.73;2.17;;;1.20;99.90;;;;;;5047610;28;20210;-78
2021/01/08 03:10:13;;;;;;;3.00;2.33;;;1.20;99.90;;;;;;5047987;28;20193;-78
2021/01/08 03:12:38;;;;;;;4.43;2.87;;;1.20;99.90;;;;;;5048868;28;20197;-78
2021/01/08 03:15:10;;;;;;;2.90;2.00;;;1.20;99.90;;;;;;5047445;28;20218;-79
2021/01/08 03:17:36;;;;;;;5.07;3.00;;;1.20;99.90;;;;;;5048366;28;20664;-79
2021/01/08 03:20:02;;;;;;;2.90;2.63;;;1.20;99.90;;;;;;5047429;28;20273;-81
2021/01/08 03:22:28;;;;;;;3.30;2.60;;;1.20;99.90;;;;;;5049084;28;20190;-77
2021/01/08 03:24:53;;;;;;;5.17;2.87;;;1.20;99.90;;;;;;5047001;28;20684;-81
2021/01/08 03:27:19;;;;;;;3.40;2.53;;;1.20;99.90;;;;;;5049063;28;20213;-77
2021/01/08 03:29:44;;;;;;;4.13;2.83;;;1.20;99.90;;;;;;5048265;28;20186;-79
2021/01/08 03:32:10;;;;;;;3.40;2.80;;;1.20;99.90;;;;;;5048278;28;20530;-79
2021/01/08 03:34:36;;;;;;;2.97;2.50;;;1.20;99.90;;;;;;5046672;28;20260;-79
2021/01/08 03:37:01;;;;;;;4.60;3.20;;;1.20;99.90;;;;;;5046601;28;20205;-81
2021/01/08 03:39:27;;;;;;;3.50;2.80;;;1.20;99.90;;;;;;5046590;28;20235;-80
2021/01/08 03:41:52;;;;;;;3.43;2.30;;;1.20;99.90;;;;;;5047549;28;20186;-80
2021/01/08 03:44:18;;;;;;;4.17;2.40;;;1.20;99.90;;;;;;5046579;28;20680;-80
2021/01/08 03:46:43;;;;;;;2.97;2.67;;;1.20;99.90;;;;;;5045893;28;20259;-80
2021/01/08 03:49:09;;;;;;;4.33;3.40;;;1.10;99.90;;;;;;5046942;28;20247;-79
2021/01/08 03:51:34;;;;;;;4.33;3.07;;;1.20;99.90;;;;;;5045914;28;20194;-81
2021/01/08 03:54:00;;;;;;;3.90;3.00;;;1.10;99.90;;;;;;5046681;28;20210;-81
2021/01/08 03:56:26;;;;;;;3.27;2.50;;;1.10;99.90;;;;;;5046576;28;20210;-81
2021/01/08 03:58:52;;;;;;;5.47;3.17;;;1.10;99.90;;;;;;5045582;28;20252;-79
2021/01/08 04:01:18;;;;;;;3.07;2.77;;;1.10;99.90;;;;;;5045485;28;20190;-79
2021/01/08 04:03:43;;;;;;;4.00;2.50;;;1.10;99.90;;;;;;5047694;28;20189;-78
2021/01/08 04:06:09;;;;;;;3.87;2.40;;;1.10;99.90;;;;;;5046019;28;20206;-77
2021/01/08 04:08:34;;;;;;;4.00;2.53;;;1.10;99.90;;;;;;5047779;28;20266;-80
2021/01/08 04:11:00;;;;;;;2.83;2.43;;;1.10;99.90;;;;;;5047626;28;20230;-80
2021/01/08 04:13:26;;;;;;;3.47;2.50;;;1.10;99.90;;;;;;5046043;28;20222;-80
2021/01/08 04:15:51;;;;;;;3.20;1.97;;;1.10;99.90;;;;;;5047056;28;20680;-79
2021/01/08 04:18:17;;;;;;;2.10;1.83;;;1.10;99.90;;;;;;5055122;28;20200;-77
2021/01/08 04:20:42;;;;;;;2.67;2.13;;;1.10;99.90;;;;;;5047401;28;20675;-80
2021/01/08 04:23:08;;;;;;;2.43;1.90;;;1.10;99.90;;;;;;5046298;28;20248;-80
2021/01/08 04:25:33;;;;;;;3.37;2.30;;;1.10;99.90;;;;;;5045566;28;20206;-77
2021/01/08 04:27:59;;;;;;;5.20;3.43;;;1.10;99.90;;;;;;5046097;28;20198;-77
2021/01/08 04:30:24;;;;;;;3.10;2.40;;;1.10;99.90;;;;;;5046085;28;20197;-82
2021/01/08 04:32:50;;;;;;;4.50;2.87;;;1.10;99.90;;;;;;5047781;28;20186;-80
2021/01/08 04:35:16;;;;;;;6.07;2.93;;;1.10;99.90;;;;;;5045367;28;20276;-77
2021/01/08 04:37:41;;;;;;;4.67;3.40;;;1.10;99.90;;;;;;5045991;28;20190;-77
2021/01/08 04:40:08;;;;;;;3.03;2.70;;;1.10;99.90;;;;;;5045794;28;20926;-77
2021/01/08 04:42:35;;;;;;;3.00;2.70;;;1.10;99.90;;;;;;5047392;28;20186;-79
2021/01/08 04:45:04;;;;;;;4.90;2.67;;;1.10;99.90;;;;;;5044914;28;20260;-81
2021/01/08 04:47:32;;;;;;;4.50;2.87;;;1.10;99.90;;;;;;5045962;28;20178;-81
2021/01/08 04:50:00;;;;;;;4.30;3.00;;;1.10;99.90;;;;;;5047563;28;20186;-78
2021/01/08 04:52:27;;;;;;;3.57;2.53;;;1.10;99.90;;;;;;5045739;28;20197;-79
2021/01/08 04:54:53;;;;;;;5.20;2.87;;;1.10;99.90;;;;;;5045139;28;20214;-78
2021/01/08 04:57:21;;;;;;;3.40;2.40;;;1.10;99.90;;;;;;5046544;28;20233;-80
2021/01/08 04:59:46;;;;;;;3.90;2.13;;;1.10;99.90;;;;;;5046007;28;20272;-79
2021/01/08 05:02:12;;;;;;;3.00;2.70;;;1.10;99.90;;;;;;5062502;28;20305;-79
2021/01/08 05:04:39;;;;;;;4.50;2.40;;;1.10;99.90;;;;;;5045951;28;20558;-79
2021/01/08 05:07:04;;;;;;;3.50;2.70;;;1.10;99.90;;;;;;5045921;28;20682;-77
2021/01/08 05:09:30;;;;;;;3.00;2.17;;;1.10;99.90;;;;;;5046002;28;20214;-78
2021/01/08 05:11:57;;;;;;;4.20;2.40;;;1.10;99.90;;;;;;5045086;28;20205;-76
2021/01/08 05:14:25;;;;;;;2.63;2.20;;;1.10;99.90;;;;;;5046557;28;20253;-78
2021/01/08 05:16:51;;;;;;;2.80;2.50;;;1.10;99.90;;;;;;5046056;28;20217;-78
2021/01/08 05:19:18;;;;;;;3.97;2.63;;;1.10;99.90;;;;;;5046265;28;20284;-78
2021/01/08 05:21:44;;;;;;;3.07;2.10;;;1.10;99.90;;;;;;5047023;28;20182;-78
2021/01/08 05:24:10;;;;;;;3.80;2.53;;;1.10;99.90;;;;;;5045961;28;20190;-78
2021/01/08 05:26:36;;;;;;;4.07;2.20;;;1.10;99.90;;;;;;5046947;28;20200;-78
2021/01/08 05:29:03;;;;;;;2.07;1.87;;;1.10;99.90;;;;;;5045706;28;20186;-77
2021/01/08 05:31:33;;;;;;;3.20;2.40;;;1.10;99.90;;;;;;5045675;28;20190;-78
2021/01/08 05:34:00;;;;;;;2.90;2.53;;;1.10;99.90;;;;;;5045844;28;20206;-79
2021/01/08 05:36:26;;;;;;;2.50;2.07;;;1.10;99.90;;;;;;5061601;28;20289;-79
2021/01/08 05:38:54;;;;;;;3.50;2.37;;;1.10;99.90;;;;;;5045630;28;20190;-76
2021/01/08 05:41:22;;;;;;;3.37;1.90;;;1.10;99.90;;;;;;5046241;28;20185;-77
2021/01/08 05:43:48;;;;;;;2.80;1.97;;;1.10;99.90;;;;;;5045356;28;20193;-77
2021/01/08 05:46:19;;;;;;;2.77;2.40;;;1.00;99.90;;;;;;5044740;28;20244;-76
2021/01/08 05:48:52;;;;;;;2.43;1.83;;;1.00;99.90;;;;;;5045862;28;20220;-80
2021/01/08 05:51:20;;;;;;;2.37;1.83;;;1.00;99.90;;;;;;5047193;28;20201;-78
2021/01/08 05:53:47;;;;;;;2.87;1.70;;;1.10;99.90;;;;;;5046029;28;20194;-78
2021/01/08 05:56:18;;;;;;;1.67;1.57;;;1.10;99.90;;;;;;5045730;28;20272;-78
2021/01/08 05:58:44;;;;;;;2.23;1.57;;;1.10;99.90;;;;;;5047602;28;20265;-78
2021/01/08 06:01:11;;;;;;;2.50;2.27;;;1.10;99.90;;;;;;5045228;28;20190;-79
2021/01/08 06:03:38;;;;;;;4.33;2.87;;;1.10;99.90;;;;;;5045490;28;20194;-76
2021/01/08 06:06:04;;;;;;;3.20;2.90;;;1.10;99.90;;;;;;5045802;28;20217;-79
2021/01/08 06:08:51;;;;;;;3.13;2.03;;;1.10;99.90;;;;;;5046842;28;20391;-80
2021/01/08 06:11:24;;;;;;;2.23;1.93;;;1.10;99.90;;;;;;5047383;28;20587;-77
2021/01/08 06:13:55;;;;;;;1.87;1.67;;;1.10;99.90;;;;;;5047329;28;20526;-77
2021/01/08 06:16:21;;;;;;;1.80;1.63;;;1.10;99.90;;;;;;5044474;28;20186;-79
2021/01/08 06:18:55;;;;;;;2.53;2.13;;;1.10;99.90;;;;;;5045274;28;20201;-76
2021/01/08 06:21:38;;;;;;;2.37;1.80;;;1.10;99.90;;;;;;5046680;28;20216;-76
2021/01/08 06:24:04;;;;;;;2.80;2.23;;;1.10;99.90;;;;;;5046781;28;20210;-78
2021/01/08 06:26:31;;;;;;;2.43;1.93;;;1.10;99.90;;;;;;5046160;28;20208;-80
2021/01/08 06:29:02;;;;;;;3.00;2.43;;;1.10;99.90;;;;;;5044895;28;20198;-79
2021/01/08 06:31:38;;;;;;;2.13;1.93;;;1.10;99.90;;;;;;5044741;28;20186;-80
2021/01/08 06:34:04;;;;;;;2.20;2.00;;;1.00;99.90;;;;;;5045565;28;20252;-78
2021/01/08 06:36:31;;;;;;;2.10;1.77;;;1.10;99.90;;;;;;5043609;28;20221;-78
2021/01/08 06:39:03;;;;;;;2.17;1.80;;;1.10;99.90;;;;;;5045982;28;20626;-78
2021/01/08 06:41:29;;;;;;;1.87;1.30;;;1.10;99.90;;;;;;5045666;28;20235;-78
2021/01/08 06:44:04;;;;;;;2.73;1.50;;;1.00;99.90;;;;;;5044363;28;20186;-77
2021/01/08 06:46:42;;;;;;;1.83;1.57;;;1.10;99.90;;;;;;5043848;28;20186;-78
2021/01/08 06:49:09;;;;;;;2.43;1.83;;;1.10;99.90;;;;;;5044694;28;20194;-80
2021/01/08 06:51:37;;;;;;;2.90;1.87;;;1.00;99.90;;;;;;5046388;28;20186;-80
2021/01/08 06:54:11;;;;;;;2.20;1.60;;;1.10;99.90;;;;;;5044872;28;20226;-80
2021/01/08 06:56:45;;;;;;;2.60;2.17;;;1.00;99.90;;;;;;5044657;28;20197;-78
2021/01/08 06:59:13;;;;;;;1.87;1.67;;;1.10;99.90;;;;;;5046874;28;20185;-80
2021/01/08 07:01:56;;;;;;;2.50;1.93;;;1.00;99.90;;;;;;5046066;28;21267;-77
2021/01/08 07:04:27;;;;;;;2.23;1.70;;;1.00;99.90;;;;;;5046319;28;20293;-78
2021/01/08 07:07:02;;;;;;;1.30;1.17;;;1.10;99.90;;;;;;5044206;28;20232;-78
2021/01/08 07:09:34;;;;;;;1.63;1.50;;;1.10;99.90;;;;;;5044484;28;20217;-79
2021/01/08 07:12:01;;;;;;;2.20;1.50;;;1.10;99.90;;;;;;5046049;28;20550;-79
2021/01/08 07:14:28;;;;;;;3.93;2.07;;;1.10;99.90;;;;;;5044349;28;20267;-79
2021/01/08 07:16:55;;;;;;;2.07;1.67;;;1.10;99.90;;;;;;5044065;28;20202;-76
2021/01/08 07:19:22;;;;;;;1.80;1.30;;;1.10;99.90;;;;;;5043822;28;20186;-78
2021/01/08 07:21:52;;;;;;;2.60;2.07;;;1.00;99.90;;;;;;5045722;28;20186;-77
2021/01/08 07:24:23;;;;;;;1.70;1.60;;;1.10;99.90;;;;;;5044258;28;20334;-80
2021/01/08 07:26:49;;;;;;;2.60;1.83;;;1.10;99.90;;;;;;5044718;28;20652;-79
2021/01/08 07:29:15;;;;;;;2.13;1.53;;;1.10;99.90;;;;;;5044146;28;20309;-78
2021/01/08 07:31:41;;;;;;;1.47;1.30;;;1.10;99.90;;;;;;5044297;28;20190;-78
2021/01/08 07:34:10;;;;;;;1.93;1.20;;;1.10;99.90;;;;;;5043829;28;20699;-78
2021/01/08 07:36:37;;;;;;;0.93;0.87;;;1.10;99.90;;;;;;5043897;28;20293;-77
2021/01/08 07:39:05;;;;;;;1.87;1.50;;;1.10;99.90;;;;;;5045911;28;20187;-79
2021/01/08 07:41:33;;;;;;;1.83;1.30;;;1.10;99.90;;;;;;5045402;28;20648;-78
2021/01/08 07:44:00;;;;;;;1.73;1.47;;;1.10;99.90;;;;;;5044788;28;20232;-79
2021/01/08 07:46:27;;;;;;;2.13;1.37;;;1.10;99.90;;;;;;5041897;28;20205;-78
2021/01/08 07:48:56;;;;;;;1.47;1.07;;;1.10;99.90;;;;;;5046746;28;20285;-79
2021/01/08 07:51:23;;;;;;;1.70;1.40;;;1.10;99.90;;;;;;5049874;28;20185;-79
2021/01/08 07:53:51;;;;;;;2.20;1.80;;;1.10;99.90;;;;;;5051991;28;20240;-76
2021/01/08 07:56:24;;;;;;;1.93;1.40;;;1.10;99.90;;;;;;5052749;28;20206;-77
2021/01/08 07:58:59;;;;;;;3.30;1.90;;;1.10;99.90;;;;;;5053395;28;20208;-78
2021/01/08 08:01:25;;;;;;;2.80;1.97;;;1.10;99.90;;;;;;5054639;28;20616;-78
2021/01/08 08:04:01;;;;;;;3.40;2.47;;;1.10;99.90;;;;;;5062756;28;20196;-77
2021/01/08 08:06:31;;;;;;;1.53;1.13;;;1.10;99.90;;;;;;5059863;28;20201;-78
2021/01/08 08:08:59;;;;;;;1.03;0.90;;;1.10;99.90;;;;;;5062929;28;20178;-76
2021/01/08 08:11:32;;;;;;;3.43;2.30;;;1.10;99.90;;;;;;5060328;28;20189;-78
2021/01/08 08:13:58;;;;;;;1.97;1.30;;;1.10;99.90;;;;;;5060634;28;20192;-76
2021/01/08 08:16:38;;;;;;;3.27;2.13;;;1.10;99.90;;;;;;5060562;28;20190;-77
2021/01/08 08:19:06;;;;;;;2.13;1.87;;;1.20;99.90;;;;;;5061708;28;20245;-78
2021/01/08 08:21:32;;;;;;;1.73;1.43;;;1.20;99.90;;;;;;5061475;28;20210;-77
2021/01/08 08:24:03;;;;;;;1.80;1.50;;;1.20;99.90;;;;;;5062130;28;20217;-79
2021/01/08 08:26:31;;;;;;;2.63;1.90;;;1.20;99.90;;;;;;5060901;28;20190;-78
2021/01/08 08:29:02;;;;;;;1.87;1.63;;;1.20;99.90;;;;;;5058976;28;20595;-79
2021/01/08 08:31:34;;;;;;;2.70;2.00;;;1.20;99.90;;;;;;5050455;28;20206;-79
2021/01/08 08:34:01;;;;;;;2.43;2.23;;;1.20;99.90;;;;;;5046239;28;20554;-76
2021/01/08 08:36:28;;;;;;;2.67;2.10;;;1.20;99.90;;;;;;5048182;28;20194;-78
2021/01/08 08:39:03;;;;;;;1.40;1.30;;;1.20;99.90;;;;;;5047016;28;20271;-76
2021/01/08 08:41:30;;;;;;;3.20;2.40;;;1.30;99.90;;;;;;5046375;28;20181;-77
2021/01/08 08:44:16;;;;;;;2.30;1.87;;;1.30;99.90;;;;;;5049295;28;20196;-77
2021/01/08 08:46:51;;;;;;;2.37;2.17;;;1.30;99.90;;;;;;5044404;28;20186;-80
2021/01/08 08:49:19;;;;;;;5.97;4.23;;;1.30;99.90;;;;;;5045932;28;20303;-78
2021/01/08 08:51:49;;;;;;;2.87;2.47;;;1.30;99.90;;;;;;5048025;28;20214;-80
2021/01/08 08:54:15;;;;;;;3.77;2.77;;;1.30;99.90;;;;;;5045946;28;20206;-81
2021/01/08 08:56:54;;;;;;;3.00;1.90;;;1.40;99.90;;;;;;5044551;28;20194;-78
2021/01/08 08:59:40;;;;;;;1.77;1.63;;;1.50;99.90;;;;;;5044834;28;20178;-77
2021/01/08 09:02:07;;;;;;;2.53;1.83;;;1.40;99.90;;;;;;5046214;28;20182;-78
2021/01/08 09:04:33;;;;;;;2.47;1.77;;;1.40;99.90;;;;;;5046473;28;20206;-78
2021/01/08 09:07:17;;;;;;;2.50;2.07;;;1.50;99.90;;;;;;5045774;28;20190;-77
2021/01/08 09:09:45;;;;;;;4.80;3.20;;;1.60;99.90;;;;;;5045507;28;21143;-79
2021/01/08 09:12:44;;;;;;;2.43;2.23;;;1.50;99.90;;;;;;5046115;28;20194;-77
2021/01/08 09:15:20;;;;;;;2.33;1.67;;;1.60;99.90;;;;;;5040576;28;20225;-79
2021/01/08 09:17:52;;;;;;;2.63;1.93;;;1.70;99.90;;;;;;5046368;28;20184;-79
2021/01/08 09:20:21;;;;;;;2.03;1.53;;;1.70;99.90;;;;;;5044587;28;20216;-77
2021/01/08 09:22:47;;;;;;;2.50;2.00;;;1.80;99.90;;;;;;5044282;28;20186;-80
2021/01/08 09:25:15;;;;;;;2.30;1.70;;;1.80;99.90;;;;;;5045832;28;20202;-79
2021/01/08 09:27:42;;;;;;;1.90;1.60;;;1.90;99.90;;;;;;5045810;28;20237;-78
2021/01/08 09:30:09;;;;;;;2.80;1.87;;;2.00;99.90;;;;;;5044864;28;20352;-77
2021/01/08 09:32:35;;;;;;;2.23;1.43;;;2.10;99.90;;;;;;5045019;28;20186;-78
2021/01/08 09:35:09;;;;;;;3.80;2.47;;;2.20;99.90;;;;;;5045876;28;20214;-78
2021/01/08 09:37:42;;;;;;;2.53;1.83;;;2.30;99.90;;;;;;5045724;28;20280;-78
2021/01/08 09:40:13;;;;;;;1.87;1.47;;;2.30;99.90;;;;;;5046015;28;20206;-77
2021/01/08 09:42:39;;;;;;;2.27;2.03;;;2.30;99.90;;;;;;5046363;28;20175;-78
2021/01/08 09:45:18;;;;;;;2.33;1.77;;;2.30;99.90;;;;;;5045898;28;20202;-81
2021/01/08 09:47:43;;;;;;;1.70;1.43;;;2.10;99.90;;;;;;5045528;28;20211;-78
2021/01/08 09:50:09;;;;;;;4.03;2.07;;;2.10;99.90;;;;;;5045984;28;20683;-80
2021/01/08 09:52:35;;;;;;;2.57;1.83;;;2.10;99.90;;;;;;5045301;28;20607;-80
2021/01/08 09:55:02;;;;;;;2.47;1.50;;;2.10;99.90;;;;;;5044944;28;20252;-78
2021/01/08 09:57:34;;;;;;;1.70;1.60;;;2.10;99.90;;;;;;5044772;28;20560;-76
2021/01/08 10:00:03;;;;;;;1.70;1.03;;;2.10;99.90;;;;;;5043544;28;20182;-78
2021/01/08 10:02:36;;;;;;;2.63;2.30;;;2.10;99.90;;;;;;5043750;28;20753;-80
2021/01/08 10:05:23;;;;;;;2.30;1.83;;;2.10;99.90;;;;;;5044392;28;20252;-81
2021/01/08 10:07:49;;;;;;;2.60;2.03;;;2.10;99.90;;;;;;5043826;28;20904;-77
2021/01/08 10:10:39;;;;;;;1.70;1.47;;;2.00;99.90;;;;;;5043646;28;20843;-77
2021/01/08 10:13:12;;;;;;;3.30;2.60;;;2.00;99.90;;;;;;5042133;28;20209;-77
2021/01/08 10:15:40;;;;;;;2.13;1.87;;;2.00;99.90;;;;;;5044475;28;20216;-79
2021/01/08 10:18:23;;;;;;;2.97;2.67;;;2.00;99.90;;;;;;5044746;28;20209;-79
2021/01/08 10:20:53;;;;;;;2.83;2.23;;;2.00;99.90;;;;;;5044815;28;20178;-79
2021/01/08 10:23:20;;;;;;;2.23;2.03;;;2.00;99.90;;;;;;5044060;28;20229;-76
2021/01/08 10:25:47;;;;;;;4.27;3.13;;;2.00;99.90;;;;;;5041898;28;20802;-76
2021/01/08 10:28:17;;;;;;;2.63;1.77;;;2.10;99.90;;;;;;5042324;28;20178;-76
2021/01/08 10:30:45;;;;;;;2.17;1.97;;;2.00;99.90;;;;;;5041917;28;20178;-76
2021/01/08 10:33:12;;;;;;;2.23;2.00;;;2.10;99.90;;;;;;5042237;28;20204;-76
2021/01/08 10:35:38;;;;;;;2.00;1.47;;;2.10;99.90;;;;;;5041862;28;20238;-80
2021/01/08 10:38:04;;;;;;;2.37;1.50;;;2.20;99.90;;;;;;5043477;28;20236;-80
2021/01/08 10:40:31;;;;;;;4.33;2.43;;;2.20;99.90;;;;;;5042849;28;20190;-77
2021/01/08 10:42:56;;;;;;;1.70;1.60;;;2.20;99.90;;;;;;5044602;28;20676;-80
2021/01/08 10:45:22;;;;;;;3.77;2.40;;;2.20;99.90;;;;;;5042935;28;20222;-80
2021/01/08 10:47:48;;;;;;;3.83;2.83;;;2.20;99.90;;;;;;5043840;28;20261;-79
2021/01/08 10:50:14;;;;;;;3.13;2.13;;;2.20;99.90;;;;;;5044527;28;21207;-80
2021/01/08 10:52:43;;;;;;;3.23;2.30;;;2.20;99.90;;;;;;5043039;28;20228;-80
2021/01/08 10:55:09;;;;;;;3.03;2.20;;;2.20;99.90;;;;;;5043235;28;20582;-80
2021/01/08 10:57:35;;;;;;;2.80;1.77;;;2.20;99.90;;;;;;5042841;28;20178;-80
2021/01/08 11:00:03;;;;;;;2.70;2.27;;;2.20;99.90;;;;;;5044241;28;20269;-78
2021/01/08 11:02:28;;;;;;;3.60;2.00;;;2.20;99.90;;;;;;5044463;28;20256;-77
2021/01/08 11:04:54;;;;;;;2.37;1.77;;;2.20;99.90;;;;;;5042662;28;20214;-77
2021/01/08 11:07:19;;;;;;;2.70;2.23;;;2.20;99.90;;;;;;5043016;28;20196;-78
2021/01/08 11:09:45;;;;;;;1.77;1.50;;;2.20;99.90;;;;;;5043131;28;20197;-79
2021/01/08 11:12:10;;;;;;;1.37;1.27;;;2.30;99.90;;;;;;5042970;28;20201;-77
2021/01/08 11:14:36;;;;;;;0.93;0.90;;;2.20;99.90;;;;;;5044021;28;20225;-80
2021/01/08 11:17:02;;;;;;;1.37;1.20;;;2.20;99.90;;;;;;5042478;28;20625;-78
2021/01/08 11:19:28;;;;;;;1.60;1.37;;;2.20;99.90;;;;;;5043444;28;20262;-79
2021/01/08 11:21:54;;;;;;;1.57;1.30;;;2.20;99.90;;;;;;5044405;28;20224;-80
2021/01/08 11:24:20;;;;;;;1.30;0.93;;;2.10;99.90;;;;;;5047218;28;20403;-79
2021/01/08 11:26:46;;;;;;;1.97;1.57;;;2.20;99.90;;;;;;5047338;28;20189;-79
2021/01/08 11:29:12;;;;;;;2.23;1.30;;;2.20;99.90;;;;;;5050376;28;20174;-78
2021/01/08 11:31:38;;;;;;;1.97;1.33;;;2.30;99.90;;;;;;5046932;28;20842;-79
2021/01/08 11:34:05;;;;;;;2.20;1.30;;;2.40;99.90;;;;;;5046162;28;20178;-80
2021/01/08 11:36:31;;;;;;;1.30;1.20;;;2.30;99.90;;;;;;5062437;28;20548;-78
2021/01/08 11:38:57;;;;;;;1.07;0.97;;;2.30;99.90;;;;;;5048342;28;20265;-78
2021/01/08 11:41:23;;;;;;;1.27;1.10;;;2.20;99.90;;;;;;5048143;28;20186;-78
2021/01/08 11:43:49;;;;;;;2.33;1.30;;;2.20;99.90;;;;;;5044509;28;20210;-80
2021/01/08 11:46:19;;;;;;;2.73;1.50;;;2.30;99.90;;;;;;5044256;28;20206;-78
2021/01/08 11:48:45;;;;;;;1.23;1.10;;;2.40;99.90;;;;;;5044196;28;20193;-79
2021/01/08 11:51:14;;;;;;;1.30;1.20;;;2.40;99.90;;;;;;5043786;28;20190;-79
2021/01/08 11:53:44;;;;;;;2.17;1.80;;;2.60;99.90;;;;;;5045443;28;20198;-80
2021/01/08 11:56:10;;;;;;;0.93;0.90;;;2.60;99.90;;;;;;5047203;28;20644;-80
2021/01/08 11:58:40;;;;;;;1.07;0.87;;;2.80;99.90;;;;;;5050123;28;20189;-79
2021/01/08 12:01:07;;;;;;;1.67;1.23;;;2.90;99.90;;;;;;5050208;28;20229;-81
2021/01/08 12:03:34;;;;;;;1.20;1.07;;;3.00;99.90;;;;;;5047085;28;20229;-79
2021/01/08 12:06:00;;;;;;;2.77;1.70;;;2.90;99.90;;;;;;5048504;28;20235;-78
2021/01/08 12:08:26;;;;;;;1.93;1.53;;;2.80;99.90;;;;;;5065184;28;20182;-79
2021/01/08 12:10:51;;;;;;;1.40;1.30;;;2.80;99.90;;;;;;5050374;28;20182;-79
2021/01/08 12:13:18;;;;;;;1.00;0.97;;;2.80;99.90;;;;;;5049793;28;20178;-79
2021/01/08 12:15:43;;;;;;;0.80;0.80;;;2.70;99.90;;;;;;5047794;28;20217;-80
2021/01/08 12:18:12;;;;;;;2.33;1.20;;;2.80;99.90;;;;;;5049145;28;20177;-80
2021/01/08 12:20:38;;;;;;;2.40;1.53;;;2.70;99.90;;;;;;5048448;28;20186;-78
2021/01/08 12:23:05;;;;;;;1.00;0.90;;;2.60;99.90;;;;;;5050261;28;20246;-78
2021/01/08 12:25:41;;;;;;;0.93;0.77;;;2.60;99.90;;;;;;5048846;28;20320;-80
2021/01/08 12:28:08;;;;;;;1.63;1.30;;;2.50;99.90;;;;;;5050803;28;20719;-80
2021/01/08 12:30:34;;;;;;;1.23;1.10;;;2.50;99.90;;;;;;5050209;28;20186;-77
2021/01/08 12:33:01;;;;;;;1.47;1.07;;;2.50;99.90;;;;;;5048744;28;21091;-80
2021/01/08 12:35:27;;;;;;;1.93;1.73;;;2.60;99.90;;;;;;5046409;28;20703;-79
2021/01/08 12:37:53;;;;;;;1.60;1.40;;;2.70;99.90;;;;;;5047145;28;20185;-79
2021/01/08 12:40:20;;;;;;;1.60;1.20;;;2.70;99.90;;;;;;5047099;28;20178;-79
2021/01/08 12:42:47;;;;;;;0.97;0.80;;;2.80;99.90;;;;;;5047022;28;20182;-79
2021/01/08 12:45:14;;;;;;;1.57;1.23;;;2.60;99.90;;;;;;5046243;28;20210;-80
2021/01/08 12:47:40;;;;;;;11.83;6.07;;;2.60;99.90;;;;;;5045593;28;20698;-81
2021/01/08 12:50:07;;;;;;;2.87;1.83;;;2.60;99.90;;;;;;5044446;28;20182;-79
2021/01/08 12:52:32;;;;;;;1.57;1.47;;;2.50;99.90;;;;;;5045170;28;20555;-80
2021/01/08 12:54:58;;;;;;;1.37;1.27;;;2.40;99.90;;;;;;5043912;28;20214;-78
2021/01/08 12:57:24;;;;;;;1.40;0.90;;;2.40;99.90;;;;;;5042884;28;20182;-80
2021/01/08 12:59:49;;;;;;;1.00;0.90;;;2.40;99.90;;;;;;5045321;28;20235;-78
2021/01/08 13:02:15;;;;;;;2.20;2.00;;;2.40;99.90;;;;;;5044706;28;20182;-78